createdAt,value
2023-03-26T00:01:24.421Z,4.95
2023-03-26T00:03:55.272Z,6.15
2023-03-26T00:06:27.763Z,5.35
2023-03-26T00:08:58.366Z,4.30
2023-03-26T00:11:27.776Z,5.07
2023-03-26T00:13:58.769Z,5.40
2023-03-26T00:16:31.221Z,5.10
2023-03-26T00:18:59.763Z,5.15
2023-03-26T00:21:28.777Z,6.18
2023-03-26T00:23:58.584Z,5.38
2023-03-26T00:26:31.177Z,5.88
2023-03-26T00:29:00.209Z,5.18
2023-03-26T00:31:27.083Z,5.85
2023-03-26T00:33:55.685Z,7.32
2023-03-26T00:36:25.581Z,5.90
2023-03-26T00:38:54.006Z,6.25
2023-03-26T00:41:25.057Z,6.80
2023-03-26T00:44:01.177Z,6.30
2023-03-26T00:46:31.136Z,6.13
2023-03-26T00:49:01.699Z,6.13
2023-03-26T00:51:28.827Z,6.30
2023-03-26T00:53:56.718Z,7.95
2023-03-26T00:56:24.031Z,5.68
2023-03-26T00:58:50.832Z,6.05
2023-03-26T01:01:27.354Z,6.10
2023-03-26T01:04:19.011Z,6.20
2023-03-26T01:06:46.855Z,5.90
2023-03-26T01:09:23.012Z,6.35
2023-03-26T01:11:50.536Z,5.85
2023-03-26T01:14:29.701Z,6.40
2023-03-26T01:16:59.104Z,6.95
2023-03-26T01:19:38.397Z,6.90
2023-03-26T01:22:07.094Z,6.57
2023-03-26T01:24:33.838Z,6.07
2023-03-26T01:27:12.215Z,6.30
2023-03-26T01:30:03.816Z,6.82
2023-03-26T01:32:51.707Z,5.68
2023-03-26T01:35:30.902Z,6.65
2023-03-26T01:38:10.635Z,7.00
2023-03-26T01:40:47.017Z,6.38
2023-03-26T01:43:43.097Z,6.10
2023-03-26T01:46:11.853Z,6.28
2023-03-26T01:48:42.730Z,5.78
2023-03-26T01:51:11.045Z,5.88
2023-03-26T01:53:43.803Z,7.07
2023-03-26T01:57:04.708Z,6.57
2023-03-26T01:59:52.113Z,7.30
2023-03-26T02:02:28.464Z,7.15
2023-03-26T02:05:08.544Z,5.55
2023-03-26T02:07:51.203Z,6.03
2023-03-26T02:10:27.095Z,5.88
2023-03-26T02:12:54.839Z,6.75
2023-03-26T02:15:22.096Z,5.35
2023-03-26T02:17:49.740Z,5.55
2023-03-26T02:20:19.224Z,6.32
2023-03-26T02:22:47.250Z,6.68
2023-03-26T02:25:19.905Z,6.40
2023-03-26T02:27:49.260Z,6.30
2023-03-26T02:30:19.745Z,6.93
2023-03-26T02:32:46.626Z,7.18
2023-03-26T02:35:13.473Z,6.82
2023-03-26T02:37:40.526Z,7.45
2023-03-26T02:40:11.598Z,7.32
2023-03-26T02:42:38.966Z,7.72
2023-03-26T02:45:07.454Z,8.88
2023-03-26T02:47:34.801Z,9.38
2023-03-26T02:50:03.737Z,8.75
2023-03-26T02:52:30.937Z,8.05
2023-03-26T02:54:57.823Z,7.70
2023-03-26T02:57:25.904Z,7.22
2023-03-26T02:59:52.972Z,8.18
2023-03-26T03:02:22.891Z,8.93
2023-03-26T03:04:49.856Z,9.02
2023-03-26T03:07:16.654Z,8.25
2023-03-26T03:09:43.522Z,7.88
2023-03-26T03:12:10.318Z,8.23
2023-03-26T03:14:37.816Z,8.57
2023-03-26T03:17:04.817Z,8.10
2023-03-26T03:19:31.626Z,8.63
2023-03-26T03:21:58.426Z,8.57
2023-03-26T03:24:27.001Z,7.93
2023-03-26T03:26:56.790Z,8.38
2023-03-26T03:29:23.968Z,9.43
2023-03-26T03:31:50.875Z,8.70
2023-03-26T03:34:17.657Z,9.63
2023-03-26T03:36:48.712Z,12.32
2023-03-26T03:39:15.873Z,14.00
2023-03-26T03:41:42.695Z,13.20
2023-03-26T03:44:09.523Z,14.65
2023-03-26T03:46:36.580Z,14.07
2023-03-26T03:49:03.780Z,15.85
2023-03-26T03:51:30.688Z,14.73
2023-03-26T03:53:57.622Z,15.18
2023-03-26T03:56:26.145Z,17.05
2023-03-26T03:58:53.113Z,18.30
2023-03-26T04:01:22.780Z,16.23
2023-03-26T04:03:50.061Z,16.42
2023-03-26T04:06:18.921Z,15.60
2023-03-26T04:08:46.622Z,16.98
2023-03-26T04:11:14.422Z,15.68
2023-03-26T04:13:41.273Z,16.15
2023-03-26T04:16:08.912Z,15.40
2023-03-26T04:18:37.538Z,17.67
2023-03-26T04:21:05.329Z,17.25
2023-03-26T04:23:32.269Z,16.58
2023-03-26T04:26:04.204Z,16.30
2023-03-26T04:28:35.640Z,15.55
2023-03-26T04:31:03.880Z,15.20
2023-03-26T04:33:33.486Z,16.17
2023-03-26T04:36:03.938Z,17.23
2023-03-26T04:38:35.577Z,17.83
2023-03-26T04:43:35.536Z,16.65
2023-03-26T04:46:05.419Z,17.02
2023-03-26T04:48:32.181Z,16.33
2023-03-26T04:50:59.068Z,16.45
2023-03-26T04:53:26.138Z,15.57
2023-03-26T04:56:01.412Z,16.35
2023-03-26T04:58:30.220Z,16.38
2023-03-26T05:00:57.508Z,18.35
2023-03-26T05:03:25.755Z,15.90
2023-03-26T05:05:52.893Z,15.38
2023-03-26T05:08:19.816Z,15.40
2023-03-26T05:10:46.607Z,18.73
2023-03-26T05:13:13.374Z,16.38
2023-03-26T05:15:40.402Z,15.43
2023-03-26T05:18:09.090Z,17.38
2023-03-26T05:20:38.204Z,18.50
2023-03-26T05:23:04.968Z,17.40
2023-03-26T05:25:33.221Z,16.33
2023-03-26T05:28:00.477Z,18.40
2023-03-26T05:30:28.986Z,16.30
2023-03-26T05:32:56.659Z,17.13
2023-03-26T05:35:24.885Z,18.23
2023-03-26T05:37:51.714Z,16.33
2023-03-26T05:40:18.670Z,17.17
2023-03-26T05:42:45.676Z,17.73
2023-03-26T05:45:14.573Z,16.80
2023-03-26T05:47:41.622Z,18.65
2023-03-26T05:50:09.287Z,16.95
2023-03-26T05:52:36.235Z,18.15
2023-03-26T05:55:03.539Z,17.45
2023-03-26T05:57:31.109Z,19.50
2023-03-26T05:59:58.002Z,20.38
2023-03-26T06:02:24.873Z,16.90
2023-03-26T06:04:52.497Z,18.40
2023-03-26T06:07:19.869Z,19.83
2023-03-26T06:09:46.868Z,18.98
2023-03-26T06:12:14.907Z,17.98
2023-03-26T06:14:43.185Z,20.63
2023-03-26T06:17:10.547Z,18.75
2023-03-26T06:19:37.876Z,18.52
2023-03-26T06:22:05.603Z,17.80
2023-03-26T06:24:32.938Z,19.55
2023-03-26T06:26:59.835Z,17.63
2023-03-26T06:29:27.044Z,18.77
2023-03-26T06:31:53.974Z,20.77
2023-03-26T06:34:20.929Z,19.15
2023-03-26T06:36:48.878Z,19.35
2023-03-26T06:39:16.169Z,18.75
2023-03-26T06:41:43.274Z,19.23
2023-03-26T06:44:11.184Z,18.80
2023-03-26T06:46:38.593Z,18.77
2023-03-26T06:49:05.470Z,20.65
2023-03-26T06:51:32.333Z,20.13
2023-03-26T06:53:59.145Z,19.42
2023-03-26T06:56:25.903Z,19.73
2023-03-26T06:58:52.684Z,22.23
2023-03-26T07:01:19.446Z,18.92
2023-03-26T07:03:46.272Z,18.27
2023-03-26T07:06:13.090Z,19.98
2023-03-26T07:08:40.099Z,20.85
2023-03-26T07:11:07.123Z,17.90
2023-03-26T07:13:33.932Z,20.10
2023-03-26T07:16:00.759Z,18.63
2023-03-26T07:18:27.621Z,22.05
2023-03-26T07:20:55.142Z,20.83
2023-03-26T07:23:23.647Z,19.77
2023-03-26T07:25:51.735Z,20.38
2023-03-26T07:28:34.892Z,21.45
2023-03-26T07:31:10.779Z,18.52
2023-03-26T07:33:55.649Z,20.67
2023-03-26T07:36:28.657Z,21.50
2023-03-26T07:39:10.703Z,19.50
2023-03-26T07:41:49.839Z,20.40
2023-03-26T07:45:08.311Z,20.58
2023-03-26T07:47:35.996Z,21.10
2023-03-26T07:50:03.612Z,20.17
2023-03-26T07:52:30.633Z,21.80
2023-03-26T07:54:57.699Z,22.05
2023-03-26T07:57:46.586Z,23.25
2023-03-26T08:00:33.941Z,21.27
2023-03-26T08:03:25.707Z,21.38
2023-03-26T08:06:14.944Z,19.85
2023-03-26T08:08:53.110Z,21.60
2023-03-26T08:11:47.236Z,21.75
2023-03-26T08:14:37.949Z,23.95
2023-03-26T08:17:14.603Z,23.02
2023-03-26T08:20:31.861Z,21.27
2023-03-26T08:23:05.067Z,21.85
2023-03-26T08:26:02.450Z,23.05
2023-03-26T08:28:48.664Z,19.27
2023-03-26T08:31:17.631Z,21.17
2023-03-26T08:33:45.070Z,18.52
2023-03-26T08:36:11.965Z,19.13
2023-03-26T08:38:38.742Z,17.50
2023-03-26T08:41:11.554Z,18.33
2023-03-26T08:44:02.750Z,20.67
2023-03-26T08:46:56.747Z,19.30
2023-03-26T08:49:53.664Z,20.13
2023-03-26T08:52:41.912Z,18.95
2023-03-26T08:55:08.661Z,18.95
2023-03-26T08:57:57.012Z,19.80
2023-03-26T09:00:49.732Z,18.08
2023-03-26T09:03:43.825Z,18.30
2023-03-26T09:06:19.333Z,14.93
2023-03-26T09:09:01.366Z,15.98
2023-03-26T09:11:52.305Z,16.10
2023-03-26T09:14:52.595Z,14.63
2023-03-26T09:17:44.913Z,14.45
2023-03-26T09:20:14.761Z,14.45
2023-03-26T09:23:15.052Z,13.93
2023-03-26T09:26:18.850Z,12.98
2023-03-26T09:28:45.532Z,12.35
2023-03-26T09:31:48.717Z,11.73
2023-03-26T09:34:51.646Z,12.27
2023-03-26T09:37:18.866Z,12.70
2023-03-26T09:39:51.758Z,13.77
2023-03-26T09:42:21.087Z,12.50
2023-03-26T09:44:59.373Z,11.48
2023-03-26T09:47:57.656Z,11.35
2023-03-26T09:50:35.576Z,10.93
2023-03-26T09:53:17.171Z,10.32
2023-03-26T09:58:51.220Z,9.38
2023-03-26T10:01:33.649Z,8.10
2023-03-26T10:04:45.171Z,9.43
2023-03-26T10:07:39.091Z,8.95
2023-03-26T10:10:18.037Z,8.18
2023-03-26T10:12:51.045Z,8.25
2023-03-26T10:15:57.496Z,9.15
2023-03-26T10:18:42.535Z,7.05
2023-03-26T10:21:27.527Z,7.93
2023-03-26T10:24:13.904Z,6.00
2023-03-26T10:27:09.364Z,7.28
2023-03-26T10:30:14.575Z,6.65
2023-03-26T10:33:01.245Z,8.35
2023-03-26T10:35:44.106Z,6.00
2023-03-26T10:38:11.050Z,6.75
2023-03-26T10:41:06.834Z,6.05
2023-03-26T10:44:07.534Z,5.40
2023-03-26T10:46:41.245Z,5.47
2023-03-26T10:49:26.634Z,13.13
2023-03-26T10:52:01.901Z,5.97
2023-03-26T10:54:47.273Z,15.18
2023-03-26T10:57:41.991Z,8.05
2023-03-26T11:00:25.564Z,4.35
2023-03-26T11:03:08.269Z,4.93
2023-03-26T11:05:54.157Z,5.60
2023-03-26T11:08:33.973Z,5.82
2023-03-26T11:11:25.573Z,5.35
2023-03-26T11:14:28.005Z,5.95
2023-03-26T11:17:39.667Z,5.03
2023-03-26T11:20:13.210Z,4.85
2023-03-26T11:22:46.277Z,5.47
2023-03-26T11:25:34.352Z,5.65
2023-03-26T11:28:23.573Z,5.00
2023-03-26T11:30:53.382Z,4.45
2023-03-26T11:33:27.529Z,4.97
2023-03-26T11:36:06.892Z,6.93
2023-03-26T11:38:38.907Z,5.60
2023-03-26T11:41:14.706Z,5.70
2023-03-26T11:43:41.589Z,5.63
2023-03-26T11:46:13.835Z,5.65
2023-03-26T11:48:44.441Z,5.68
2023-03-26T11:51:29.410Z,5.00
2023-03-26T11:53:57.744Z,5.05
2023-03-26T11:56:35.921Z,4.57
2023-03-26T11:59:18.145Z,4.90
2023-03-26T12:01:57.996Z,4.80
2023-03-26T12:04:36.855Z,8.43
2023-03-26T12:07:17.826Z,4.18
2023-03-26T12:09:57.348Z,4.97
2023-03-26T12:12:47.145Z,4.85
2023-03-26T12:15:19.996Z,5.05
2023-03-26T12:17:53.655Z,4.95
2023-03-26T12:20:26.794Z,4.70
2023-03-26T12:23:01.593Z,5.40
2023-03-26T12:25:33.871Z,4.90
2023-03-26T12:28:20.356Z,4.78
2023-03-26T12:31:02.334Z,3.65
2023-03-26T12:33:34.744Z,3.97
2023-03-26T12:36:39.016Z,5.07
2023-03-26T12:40:12.009Z,5.00
2023-03-26T12:44:44.732Z,4.80
2023-03-26T12:45:23.799Z,5.70
2023-03-26T12:47:59.508Z,4.78
2023-03-26T12:51:01.777Z,4.00
2023-03-26T12:53:40.095Z,3.40
2023-03-26T12:56:36.770Z,4.05
2023-03-26T12:59:03.924Z,7.85
2023-03-26T13:01:50.438Z,4.07
2023-03-26T13:04:34.367Z,5.63
2023-03-26T13:07:10.937Z,4.22
2023-03-26T13:09:59.045Z,5.13
2023-03-26T13:12:56.975Z,4.82
2023-03-26T13:15:35.326Z,4.28
2023-03-26T13:18:29.656Z,3.03
2023-03-26T13:21:22.873Z,5.32
2023-03-26T13:24:37.158Z,4.18
2023-03-26T13:27:07.455Z,4.45
2023-03-26T13:29:59.354Z,3.50
2023-03-26T13:32:37.036Z,3.65
2023-03-26T13:35:26.030Z,3.63
2023-03-26T13:37:59.298Z,4.28
2023-03-26T13:40:44.552Z,3.67
2023-03-26T13:43:13.825Z,3.42
2023-03-26T13:46:10.422Z,3.15
2023-03-26T13:48:50.605Z,3.28
2023-03-26T13:51:39.900Z,3.50
2023-03-26T13:54:51.512Z,3.60
2023-03-26T13:57:33.505Z,3.80
2023-03-26T14:00:22.258Z,3.22
2023-03-26T14:03:41.451Z,3.08
2023-03-26T14:06:34.002Z,3.75
2023-03-26T14:09:15.697Z,3.72
2023-03-26T14:11:56.894Z,3.55
2023-03-26T14:14:46.427Z,4.43
2023-03-26T14:17:50.449Z,3.97
2023-03-26T14:20:53.288Z,3.55
2023-03-26T14:23:20.308Z,4.32
2023-03-26T14:26:19.636Z,3.50
2023-03-26T14:28:52.167Z,3.03
2023-03-26T14:31:19.482Z,2.83
2023-03-26T14:34:07.664Z,2.45
2023-03-26T14:36:49.189Z,2.63
2023-03-26T14:39:51.501Z,9.88
2023-03-26T14:42:29.386Z,2.78
2023-03-26T14:45:20.482Z,2.58
2023-03-26T14:48:16.341Z,2.30
2023-03-26T14:50:54.470Z,2.50
2023-03-26T14:53:34.950Z,4.72
2023-03-26T14:56:29.200Z,6.10
2023-03-26T14:59:14.451Z,3.25
2023-03-26T15:02:19.029Z,3.33
2023-03-26T15:05:12.874Z,3.40
2023-03-26T15:08:12.981Z,5.07
2023-03-26T15:10:54.203Z,4.40
2023-03-26T15:16:40.016Z,3.50
2023-03-26T15:19:25.737Z,3.58
2023-03-26T15:22:14.993Z,2.70
2023-03-26T15:24:42.033Z,3.88
2023-03-26T15:27:52.614Z,3.28
2023-03-26T15:30:50.728Z,2.47
2023-03-26T15:33:35.128Z,3.67
2023-03-26T15:36:32.799Z,2.20
2023-03-26T15:39:03.316Z,2.92
2023-03-26T15:41:58.422Z,3.13
2023-03-26T15:45:14.152Z,4.10
2023-03-26T15:48:13.987Z,3.53
2023-03-26T15:50:43.753Z,3.38
2023-03-26T15:53:28.928Z,3.63
2023-03-26T15:56:40.760Z,3.65
2023-03-26T16:20:33.199Z,2.53
2023-03-26T16:23:03.431Z,3.40
2023-03-26T16:25:35.570Z,3.58
2023-03-26T16:28:40.750Z,4.28
2023-03-26T16:31:35.026Z,3.67
2023-03-26T16:34:05.942Z,3.13
2023-03-26T16:36:43.689Z,2.88
2023-03-26T16:39:23.677Z,3.63
2023-03-26T16:42:06.352Z,2.95
2023-03-26T16:44:52.616Z,2.35
2023-03-26T16:47:28.388Z,2.00
2023-03-26T16:50:37.418Z,2.13
2023-03-26T16:53:23.299Z,2.08
2023-03-26T16:56:03.740Z,1.75
2023-03-26T16:58:56.254Z,2.45
2023-03-26T17:01:51.030Z,2.22
2023-03-26T17:04:25.055Z,2.53
2023-03-26T17:07:18.819Z,3.30
2023-03-26T17:10:07.198Z,2.97
2023-03-26T17:13:09.198Z,2.38
2023-03-26T17:15:44.727Z,2.50
2023-03-26T17:18:36.560Z,2.30
2023-03-26T17:21:11.257Z,3.10
2023-03-26T17:24:15.473Z,4.65
2023-03-26T17:26:50.363Z,3.83
2023-03-26T17:29:57.716Z,2.95
2023-03-26T17:32:25.393Z,2.55
2023-03-26T17:34:59.308Z,3.53
2023-03-26T17:37:35.262Z,2.42
2023-03-26T17:40:23.588Z,1.88
2023-03-26T17:43:09.821Z,2.40
2023-03-26T17:45:39.268Z,4.43
2023-03-26T17:48:20.693Z,3.65
2023-03-26T17:50:58.087Z,2.97
2023-03-26T17:53:30.956Z,2.50
2023-03-26T17:56:03.324Z,2.40
2023-03-26T17:58:37.973Z,2.22
2023-03-26T18:01:28.826Z,2.45
2023-03-26T18:03:59.968Z,2.37
2023-03-26T18:06:48.510Z,1.90
2023-03-26T18:09:43.322Z,2.70
2023-03-26T18:12:50.137Z,2.80
2023-03-26T18:15:55.327Z,1.58
2023-03-26T18:18:52.042Z,1.58
2023-03-26T18:21:42.076Z,1.88
2023-03-26T18:24:19.567Z,1.20
2023-03-26T18:27:11.892Z,1.85
2023-03-26T18:29:44.877Z,3.30
2023-03-26T18:32:11.864Z,2.58
2023-03-26T18:34:46.476Z,3.83
2023-03-26T18:37:18.365Z,3.58
2023-03-26T18:40:04.711Z,3.95
2023-03-26T18:42:34.087Z,2.50
2023-03-26T18:45:07.949Z,2.90
2023-03-26T18:47:36.703Z,2.28
2023-03-26T18:50:04.875Z,3.03
2023-03-26T18:52:32.874Z,4.00
2023-03-26T18:55:02.502Z,5.60
2023-03-26T18:57:31.012Z,7.85
2023-03-26T19:00:17.000Z,19.13
2023-03-26T19:02:45.632Z,3.80
2023-03-26T19:05:22.280Z,3.67
2023-03-26T19:07:50.259Z,2.83
2023-03-26T19:10:22.055Z,2.45
2023-03-26T19:13:03.366Z,2.40
2023-03-26T19:15:33.944Z,2.85
2023-03-26T19:18:14.685Z,2.43
2023-03-26T19:21:02.305Z,3.43
2023-03-26T19:23:54.852Z,2.13
2023-03-26T19:26:22.276Z,2.38
2023-03-26T19:28:53.510Z,1.65
2023-03-26T19:31:30.382Z,2.80
2023-03-26T19:34:00.144Z,2.28
2023-03-26T19:36:32.507Z,2.65
2023-03-26T19:38:59.328Z,3.17
2023-03-26T19:41:35.218Z,3.17
2023-03-26T19:44:15.626Z,2.67
2023-03-26T19:46:52.851Z,2.13
2023-03-26T19:49:27.974Z,2.45
2023-03-26T19:52:24.833Z,2.33
2023-03-26T19:55:02.629Z,2.38
2023-03-26T19:57:36.352Z,4.00
2023-03-26T20:00:09.296Z,2.47
2023-03-26T20:02:36.328Z,2.42
2023-03-26T20:05:03.204Z,2.15
2023-03-26T20:07:35.586Z,2.50
2023-03-26T20:10:05.577Z,1.90
2023-03-26T20:12:32.885Z,2.17
2023-03-26T20:15:00.761Z,1.90
2023-03-26T20:17:30.809Z,2.38
2023-03-26T20:19:57.914Z,1.83
2023-03-26T20:22:29.338Z,1.98
2023-03-26T20:24:56.615Z,2.15
2023-03-26T20:27:23.733Z,2.22
2023-03-26T20:29:50.848Z,1.65
2023-03-26T20:32:24.242Z,1.88
2023-03-26T20:34:52.526Z,1.70
2023-03-26T20:37:19.561Z,2.13
2023-03-26T20:39:50.158Z,2.25
2023-03-26T20:42:17.167Z,2.10
2023-03-26T20:44:45.357Z,1.92
2023-03-26T20:47:14.610Z,2.70
2023-03-26T20:49:41.881Z,1.92
2023-03-26T20:52:11.069Z,2.35
2023-03-26T20:54:44.342Z,3.30
2023-03-26T20:57:14.268Z,2.10
2023-03-26T20:59:42.089Z,2.80
2023-03-26T21:02:12.017Z,2.28
2023-03-26T21:04:38.922Z,2.58
2023-03-26T21:07:17.539Z,1.92
2023-03-26T21:09:46.841Z,2.25
2023-03-26T21:12:33.474Z,1.83
2023-03-26T21:15:09.941Z,2.22
2023-03-26T21:17:40.704Z,2.65
2023-03-26T21:20:13.356Z,4.25
2023-03-26T21:23:05.273Z,2.20
2023-03-26T21:25:39.113Z,1.50
2023-03-26T21:28:35.443Z,1.77
2023-03-26T21:31:14.661Z,1.58
2023-03-26T21:33:43.060Z,2.03
2023-03-26T21:36:10.880Z,1.42
2023-03-26T21:38:43.220Z,2.60
2023-03-26T21:41:25.122Z,1.73
2023-03-26T21:43:52.160Z,1.73
2023-03-26T21:46:19.482Z,1.80
2023-03-26T21:48:46.578Z,2.00
2023-03-26T21:51:15.405Z,2.50
2023-03-26T21:53:43.025Z,1.73
2023-03-26T21:56:12.790Z,1.88
2023-03-26T21:59:08.393Z,1.73
2023-03-26T22:01:47.757Z,1.92
2023-03-26T22:04:43.763Z,1.70
2023-03-26T22:07:20.641Z,1.50
2023-03-26T22:09:47.731Z,2.00
2023-03-26T22:12:14.601Z,1.83
2023-03-26T22:14:44.578Z,2.22
2023-03-26T22:17:11.382Z,2.35
2023-03-26T22:19:38.307Z,2.97
2023-03-26T22:22:05.404Z,1.52
2023-03-26T22:24:32.186Z,2.03
2023-03-26T22:26:58.981Z,2.05
2023-03-26T22:29:25.766Z,1.67
2023-03-26T22:31:52.566Z,1.55
2023-03-26T22:34:19.899Z,1.63
2023-03-26T22:36:46.711Z,1.40
2023-03-26T22:39:13.882Z,1.65
2023-03-26T22:41:40.749Z,1.40
2023-03-26T22:44:19.177Z,1.77
2023-03-26T22:46:49.411Z,1.40
2023-03-26T22:49:17.344Z,1.20
2023-03-26T22:51:44.369Z,1.65
2023-03-26T22:54:11.578Z,1.55
2023-03-26T22:56:38.458Z,1.65
2023-03-26T22:59:05.706Z,1.50
2023-03-26T23:01:32.740Z,1.98
2023-03-26T23:03:59.644Z,1.60
2023-03-26T23:06:26.529Z,1.40
2023-03-26T23:08:54.400Z,1.50
2023-03-26T23:11:24.587Z,1.52
2023-03-26T23:13:51.698Z,2.15
2023-03-26T23:16:21.541Z,2.95
2023-03-26T23:18:48.640Z,1.20
2023-03-26T23:21:22.365Z,2.15
2023-03-26T23:23:51.653Z,2.53
2023-03-26T23:26:18.486Z,2.03
2023-03-26T23:28:45.270Z,1.88
2023-03-26T23:31:12.786Z,1.52
2023-03-26T23:33:45.960Z,2.00
2023-03-26T23:36:17.539Z,1.70
2023-03-26T23:38:48.162Z,2.88
2023-03-26T23:41:17.200Z,1.87
2023-03-26T23:43:53.424Z,1.63
2023-03-26T23:46:23.556Z,2.22
2023-03-26T23:48:52.549Z,1.88
2023-03-26T23:51:20.948Z,1.83
2023-03-26T23:53:49.268Z,1.95
2023-03-26T23:56:16.359Z,1.73
2023-03-26T23:58:43.193Z,2.05
